sensor_id;sensor_type;location;lat;lon;timestamp;P1;durP1;ratioP1;P2;durP2;ratioP2
18190;SDS011;47004;51.366;12.348;2024-01-15T00:00:28;18.60;;;8.53;;
18190;SDS011;47004;51.366;12.348;2024-01-15T00:02:30;17.03;;;7.33;;
18190;SDS011;47004;51.366;12.348;2024-01-15T00:04:35;15.83;;;7.13;;
18190;SDS011;47004;51.366;12.348;2024-01-15T00:06:38;19.93;;;8.03;;
18190;SDS011;47004;51.366;12.348;2024-01-15T00:08:39;17.47;;;8.00;;
18190;SDS011;47004;51.366;12.348;2024-01-15T00:10:42;18.87;;;8.10;;
18190;SDS011;47004;51.366;12.348;2024-01-15T00:12:44;17.60;;;8.00;;
18190;SDS011;47004;51.366;12.348;2024-01-15T00:14:46;17.00;;;8.10;;
18190;SDS011;47004;51.366;12.348;2024-01-15T00:16:48;22.30;;;8.17;;
18190;SDS011;47004;51.366;12.348;2024-01-15T00:18:51;20.43;;;9.00;;
18190;SDS011;47004;51.366;12.348;2024-01-15T00:20:53;20.20;;;8.40;;
18190;SDS011;47004;51.366;12.348;2024-01-15T00:22:55;21.07;;;7.90;;
18190;SDS011;47004;51.366;12.348;2024-01-15T00:24:57;19.77;;;8.30;;
18190;SDS011;47004;51.366;12.348;2024-01-15T00:27:00;21.17;;;8.50;;
18190;SDS011;47004;51.366;12.348;2024-01-15T00:29:02;21.00;;;8.87;;
18190;SDS011;47004;51.366;12.348;2024-01-15T00:31:04;20.27;;;8.23;;
18190;SDS011;47004;51.366;12.348;2024-01-15T00:33:06;19.17;;;8.53;;
18190;SDS011;47004;51.366;12.348;2024-01-15T00:35:08;19.53;;;7.97;;
18190;SDS011;47004;51.366;12.348;2024-01-15T00:37:10;19.43;;;8.70;;
18190;SDS011;47004;51.366;12.348;2024-01-15T00:39:12;19.50;;;8.60;;
18190;SDS011;47004;51.366;12.348;2024-01-15T00:41:14;21.27;;;8.93;;
18190;SDS011;47004;51.366;12.348;2024-01-15T00:43:18;19.83;;;8.87;;
18190;SDS011;47004;51.366;12.348;2024-01-15T00:45:20;19.20;;;7.97;;
18190;SDS011;47004;51.366;12.348;2024-01-15T00:47:22;18.87;;;7.80;;
18190;SDS011;47004;51.366;12.348;2024-01-15T00:49:23;20.37;;;8.53;;
18190;SDS011;47004;51.366;12.348;2024-01-15T00:51:25;22.93;;;8.93;;
18190;SDS011;47004;51.366;12.348;2024-01-15T00:53:27;21.37;;;8.63;;
18190;SDS011;47004;51.366;12.348;2024-01-15T00:55:29;21.03;;;8.77;;
18190;SDS011;47004;51.366;12.348;2024-01-15T00:57:31;18.60;;;7.57;;
18190;SDS011;47004;51.366;12.348;2024-01-15T00:59:34;19.33;;;8.27;;
18190;SDS011;47004;51.366;12.348;2024-01-15T01:01:36;21.07;;;8.30;;
18190;SDS011;47004;51.366;12.348;2024-01-15T01:03:42;23.20;;;8.57;;
18190;SDS011;47004;51.366;12.348;2024-01-15T01:05:44;24.43;;;8.77;;
18190;SDS011;47004;51.366;12.348;2024-01-15T01:07:46;21.37;;;8.77;;
18190;SDS011;47004;51.366;12.348;2024-01-15T01:09:48;19.27;;;8.33;;
18190;SDS011;47004;51.366;12.348;2024-01-15T01:11:51;18.93;;;8.20;;
18190;SDS011;47004;51.366;12.348;2024-01-15T01:13:53;21.57;;;8.63;;
18190;SDS011;47004;51.366;12.348;2024-01-15T01:15:58;20.13;;;8.47;;
18190;SDS011;47004;51.366;12.348;2024-01-15T01:18:00;22.40;;;9.23;;
18190;SDS011;47004;51.366;12.348;2024-01-15T01:20:01;20.53;;;8.23;;
18190;SDS011;47004;51.366;12.348;2024-01-15T01:22:04;19.67;;;8.77;;
18190;SDS011;47004;51.366;12.348;2024-01-15T01:24:06;22.50;;;8.57;;
18190;SDS011;47004;51.366;12.348;2024-01-15T01:26:08;22.60;;;8.50;;
18190;SDS011;47004;51.366;12.348;2024-01-15T01:28:10;18.90;;;8.17;;
18190;SDS011;47004;51.366;12.348;2024-01-15T01:30:12;18.77;;;8.70;;
18190;SDS011;47004;51.366;12.348;2024-01-15T01:32:15;20.67;;;8.07;;
18190;SDS011;47004;51.366;12.348;2024-01-15T01:34:16;19.43;;;8.50;;
18190;SDS011;47004;51.366;12.348;2024-01-15T01:36:18;19.93;;;8.33;;
18190;SDS011;47004;51.366;12.348;2024-01-15T01:38:19;19.23;;;8.23;;
18190;SDS011;47004;51.366;12.348;2024-01-15T01:40:21;19.13;;;8.10;;
18190;SDS011;47004;51.366;12.348;2024-01-15T01:42:23;18.73;;;8.53;;
18190;SDS011;47004;51.366;12.348;2024-01-15T01:44:24;18.10;;;8.47;;
18190;SDS011;47004;51.366;12.348;2024-01-15T01:46:27;17.63;;;8.33;;
18190;SDS011;47004;51.366;12.348;2024-01-15T01:48:30;17.70;;;8.20;;
18190;SDS011;47004;51.366;12.348;2024-01-15T01:50:33;19.33;;;8.40;;
18190;SDS011;47004;51.366;12.348;2024-01-15T01:52:35;19.27;;;8.20;;
18190;SDS011;47004;51.366;12.348;2024-01-15T01:54:37;18.80;;;9.17;;
18190;SDS011;47004;51.366;12.348;2024-01-15T01:56:41;21.17;;;8.70;;
18190;SDS011;47004;51.366;12.348;2024-01-15T01:58:43;19.83;;;8.70;;
18190;SDS011;47004;51.366;12.348;2024-01-15T02:00:45;20.97;;;8.40;;
18190;SDS011;47004;51.366;12.348;2024-01-15T02:02:47;20.00;;;8.67;;
18190;SDS011;47004;51.366;12.348;2024-01-15T02:04:50;19.43;;;8.80;;
18190;SDS011;47004;51.366;12.348;2024-01-15T02:06:52;19.80;;;8.43;;
18190;SDS011;47004;51.366;12.348;2024-01-15T02:08:54;19.67;;;8.13;;
18190;SDS011;47004;51.366;12.348;2024-01-15T02:10:57;17.30;;;7.77;;
18190;SDS011;47004;51.366;12.348;2024-01-15T02:13:01;17.53;;;8.13;;
18190;SDS011;47004;51.366;12.348;2024-01-15T02:15:03;21.13;;;8.70;;
18190;SDS011;47004;51.366;12.348;2024-01-15T02:17:05;18.70;;;7.73;;
18190;SDS011;47004;51.366;12.348;2024-01-15T02:19:07;19.97;;;8.43;;
18190;SDS011;47004;51.366;12.348;2024-01-15T02:21:17;19.77;;;8.27;;
18190;SDS011;47004;51.366;12.348;2024-01-15T02:23:20;17.73;;;7.77;;
18190;SDS011;47004;51.366;12.348;2024-01-15T02:25:23;18.73;;;7.57;;
18190;SDS011;47004;51.366;12.348;2024-01-15T02:27:25;17.87;;;7.77;;
18190;SDS011;47004;51.366;12.348;2024-01-15T02:29:27;18.00;;;7.60;;
18190;SDS011;47004;51.366;12.348;2024-01-15T02:31:29;21.20;;;7.47;;
18190;SDS011;47004;51.366;12.348;2024-01-15T02:33:30;20.77;;;8.43;;
18190;SDS011;47004;51.366;12.348;2024-01-15T02:35:32;20.57;;;7.90;;
18190;SDS011;47004;51.366;12.348;2024-01-15T02:37:34;16.40;;;7.50;;
18190;SDS011;47004;51.366;12.348;2024-01-15T02:39:38;15.77;;;6.73;;
18190;SDS011;47004;51.366;12.348;2024-01-15T02:41:40;20.07;;;8.47;;
18190;SDS011;47004;51.366;12.348;2024-01-15T02:43:42;19.80;;;7.93;;
18190;SDS011;47004;51.366;12.348;2024-01-15T02:45:44;17.13;;;7.70;;
18190;SDS011;47004;51.366;12.348;2024-01-15T02:47:46;17.70;;;7.70;;
18190;SDS011;47004;51.366;12.348;2024-01-15T02:49:47;18.33;;;8.00;;
18190;SDS011;47004;51.366;12.348;2024-01-15T02:51:48;19.93;;;7.10;;
18190;SDS011;47004;51.366;12.348;2024-01-15T02:53:50;19.70;;;7.33;;
18190;SDS011;47004;51.366;12.348;2024-01-15T02:55:54;16.90;;;7.20;;
18190;SDS011;47004;51.366;12.348;2024-01-15T02:57:56;16.37;;;7.17;;
18190;SDS011;47004;51.366;12.348;2024-01-15T02:59:58;21.17;;;7.73;;
18190;SDS011;47004;51.366;12.348;2024-01-15T03:02:00;15.17;;;6.97;;
18190;SDS011;47004;51.366;12.348;2024-01-15T03:04:03;16.60;;;7.20;;
18190;SDS011;47004;51.366;12.348;2024-01-15T03:06:05;18.80;;;7.70;;
18190;SDS011;47004;51.366;12.348;2024-01-15T03:08:07;17.53;;;6.97;;
18190;SDS011;47004;51.366;12.348;2024-01-15T03:10:09;20.20;;;7.03;;
18190;SDS011;47004;51.366;12.348;2024-01-15T03:12:12;18.33;;;7.87;;
18190;SDS011;47004;51.366;12.348;2024-01-15T03:14:14;13.73;;;6.47;;
18190;SDS011;47004;51.366;12.348;2024-01-15T03:16:16;18.13;;;7.23;;
18190;SDS011;47004;51.366;12.348;2024-01-15T03:18:20;19.93;;;7.47;;
18190;SDS011;47004;51.366;12.348;2024-01-15T03:20:21;21.23;;;7.77;;
18190;SDS011;47004;51.366;12.348;2024-01-15T03:22:23;17.77;;;7.00;;
18190;SDS011;47004;51.366;12.348;2024-01-15T03:24:25;17.70;;;6.97;;
18190;SDS011;47004;51.366;12.348;2024-01-15T03:26:27;18.43;;;8.00;;
18190;SDS011;47004;51.366;12.348;2024-01-15T03:28:30;18.53;;;7.10;;
18190;SDS011;47004;51.366;12.348;2024-01-15T03:30:31;21.17;;;8.43;;
18190;SDS011;47004;51.366;12.348;2024-01-15T03:32:33;18.73;;;7.57;;
18190;SDS011;47004;51.366;12.348;2024-01-15T03:34:35;20.40;;;7.87;;
18190;SDS011;47004;51.366;12.348;2024-01-15T03:36:37;19.80;;;7.63;;
18190;SDS011;47004;51.366;12.348;2024-01-15T03:38:40;17.20;;;7.50;;
18190;SDS011;47004;51.366;12.348;2024-01-15T03:40:42;17.40;;;6.57;;
18190;SDS011;47004;51.366;12.348;2024-01-15T03:42:44;15.70;;;6.97;;
18190;SDS011;47004;51.366;12.348;2024-01-15T03:44:48;18.60;;;7.57;;
18190;SDS011;47004;51.366;12.348;2024-01-15T03:46:50;19.87;;;7.43;;
18190;SDS011;47004;51.366;12.348;2024-01-15T03:48:52;17.20;;;7.60;;
18190;SDS011;47004;51.366;12.348;2024-01-15T03:50:53;19.60;;;7.40;;
18190;SDS011;47004;51.366;12.348;2024-01-15T03:52:54;17.07;;;7.17;;
18190;SDS011;47004;51.366;12.348;2024-01-15T03:54:56;21.97;;;7.40;;
18190;SDS011;47004;51.366;12.348;2024-01-15T03:56:58;18.73;;;7.83;;
18190;SDS011;47004;51.366;12.348;2024-01-15T03:59:00;18.20;;;7.70;;
18190;SDS011;47004;51.366;12.348;2024-01-15T04:01:06;16.10;;;6.77;;
18190;SDS011;47004;51.366;12.348;2024-01-15T04:03:09;16.13;;;6.97;;
18190;SDS011;47004;51.366;12.348;2024-01-15T04:05:11;17.23;;;6.70;;
18190;SDS011;47004;51.366;12.348;2024-01-15T04:07:13;15.93;;;6.60;;
18190;SDS011;47004;51.366;12.348;2024-01-15T04:09:15;19.13;;;6.90;;
18190;SDS011;47004;51.366;12.348;2024-01-15T04:11:17;17.00;;;7.00;;
18190;SDS011;47004;51.366;12.348;2024-01-15T04:13:19;14.30;;;6.30;;
18190;SDS011;47004;51.366;12.348;2024-01-15T04:15:20;15.43;;;6.37;;
18190;SDS011;47004;51.366;12.348;2024-01-15T04:17:23;16.50;;;7.03;;
18190;SDS011;47004;51.366;12.348;2024-01-15T04:19:25;17.57;;;6.43;;
18190;SDS011;47004;51.366;12.348;2024-01-15T04:21:27;13.30;;;6.30;;
18190;SDS011;47004;51.366;12.348;2024-01-15T04:23:29;17.30;;;6.60;;
18190;SDS011;47004;51.366;12.348;2024-01-15T04:25:31;14.10;;;6.30;;
18190;SDS011;47004;51.366;12.348;2024-01-15T04:27:33;18.10;;;6.80;;
18190;SDS011;47004;51.366;12.348;2024-01-15T04:29:35;15.70;;;6.57;;
18190;SDS011;47004;51.366;12.348;2024-01-15T04:31:38;14.50;;;6.20;;
18190;SDS011;47004;51.366;12.348;2024-01-15T04:33:41;18.33;;;6.30;;
18190;SDS011;47004;51.366;12.348;2024-01-15T04:35:43;16.57;;;6.70;;
18190;SDS011;47004;51.366;12.348;2024-01-15T04:37:45;15.87;;;6.50;;
18190;SDS011;47004;51.366;12.348;2024-01-15T04:39:47;16.07;;;5.77;;
18190;SDS011;47004;51.366;12.348;2024-01-15T04:41:49;17.43;;;6.83;;
18190;SDS011;47004;51.366;12.348;2024-01-15T04:43:50;14.67;;;5.90;;
18190;SDS011;47004;51.366;12.348;2024-01-15T04:45:52;12.43;;;5.87;;
18190;SDS011;47004;51.366;12.348;2024-01-15T04:47:55;16.77;;;7.00;;
18190;SDS011;47004;51.366;12.348;2024-01-15T04:49:59;15.13;;;6.67;;
18190;SDS011;47004;51.366;12.348;2024-01-15T04:52:01;15.00;;;6.43;;
18190;SDS011;47004;51.366;12.348;2024-01-15T04:54:03;13.33;;;6.30;;
18190;SDS011;47004;51.366;12.348;2024-01-15T04:56:05;16.00;;;6.73;;
18190;SDS011;47004;51.366;12.348;2024-01-15T04:58:07;16.80;;;6.83;;
18190;SDS011;47004;51.366;12.348;2024-01-15T05:00:10;14.70;;;6.30;;
18190;SDS011;47004;51.366;12.348;2024-01-15T05:02:14;15.80;;;5.97;;
18190;SDS011;47004;51.366;12.348;2024-01-15T05:04:15;13.97;;;5.93;;
18190;SDS011;47004;51.366;12.348;2024-01-15T05:06:19;14.40;;;6.03;;
18190;SDS011;47004;51.366;12.348;2024-01-15T05:08:21;14.63;;;5.77;;
18190;SDS011;47004;51.366;12.348;2024-01-15T05:10:23;12.53;;;6.23;;
18190;SDS011;47004;51.366;12.348;2024-01-15T05:12:24;16.27;;;6.30;;
18190;SDS011;47004;51.366;12.348;2024-01-15T05:14:26;15.30;;;5.87;;
18190;SDS011;47004;51.366;12.348;2024-01-15T05:16:28;12.03;;;5.40;;
18190;SDS011;47004;51.366;12.348;2024-01-15T05:18:29;16.60;;;5.73;;
18190;SDS011;47004;51.366;12.348;2024-01-15T05:20:31;12.57;;;5.60;;
18190;SDS011;47004;51.366;12.348;2024-01-15T05:22:35;14.40;;;5.87;;
18190;SDS011;47004;51.366;12.348;2024-01-15T05:24:37;13.77;;;5.70;;
18190;SDS011;47004;51.366;12.348;2024-01-15T05:26:39;16.27;;;6.10;;
18190;SDS011;47004;51.366;12.348;2024-01-15T05:28:41;13.97;;;5.87;;
18190;SDS011;47004;51.366;12.348;2024-01-15T05:30:43;14.00;;;5.43;;
18190;SDS011;47004;51.366;12.348;2024-01-15T05:32:45;11.70;;;5.67;;
18190;SDS011;47004;51.366;12.348;2024-01-15T05:34:49;14.40;;;5.43;;
18190;SDS011;47004;51.366;12.348;2024-01-15T05:36:51;15.33;;;5.50;;
18190;SDS011;47004;51.366;12.348;2024-01-15T05:38:54;15.23;;;5.00;;
18190;SDS011;47004;51.366;12.348;2024-01-15T05:40:56;14.00;;;6.07;;
18190;SDS011;47004;51.366;12.348;2024-01-15T05:42:57;12.17;;;5.87;;
18190;SDS011;47004;51.366;12.348;2024-01-15T05:44:59;13.10;;;5.00;;
18190;SDS011;47004;51.366;12.348;2024-01-15T05:47:03;16.77;;;5.47;;
18190;SDS011;47004;51.366;12.348;2024-01-15T05:49:04;9.33;;;4.50;;
18190;SDS011;47004;51.366;12.348;2024-01-15T05:51:06;13.40;;;4.97;;
18190;SDS011;47004;51.366;12.348;2024-01-15T05:53:08;11.63;;;5.33;;
18190;SDS011;47004;51.366;12.348;2024-01-15T05:55:11;10.83;;;5.10;;
18190;SDS011;47004;51.366;12.348;2024-01-15T05:57:13;13.37;;;5.23;;
18190;SDS011;47004;51.366;12.348;2024-01-15T05:59:17;11.57;;;4.73;;
18190;SDS011;47004;51.366;12.348;2024-01-15T06:01:19;11.50;;;4.70;;
18190;SDS011;47004;51.366;12.348;2024-01-15T06:03:21;12.13;;;4.87;;
18190;SDS011;47004;51.366;12.348;2024-01-15T06:05:23;13.47;;;5.00;;
18190;SDS011;47004;51.366;12.348;2024-01-15T06:07:25;13.17;;;5.00;;
18190;SDS011;47004;51.366;12.348;2024-01-15T06:09:27;11.27;;;4.90;;
18190;SDS011;47004;51.366;12.348;2024-01-15T06:11:30;12.80;;;5.30;;
18190;SDS011;47004;51.366;12.348;2024-01-15T06:13:31;11.70;;;5.13;;
18190;SDS011;47004;51.366;12.348;2024-01-15T06:15:33;13.10;;;5.53;;
18190;SDS011;47004;51.366;12.348;2024-01-15T06:17:35;10.90;;;4.20;;
18190;SDS011;47004;51.366;12.348;2024-01-15T06:19:37;11.13;;;5.10;;
18190;SDS011;47004;51.366;12.348;2024-01-15T06:21:39;13.13;;;4.83;;
18190;SDS011;47004;51.366;12.348;2024-01-15T06:23:41;10.50;;;4.97;;
18190;SDS011;47004;51.366;12.348;2024-01-15T06:25:43;9.63;;;4.43;;
18190;SDS011;47004;51.366;12.348;2024-01-15T06:27:47;9.03;;;4.30;;
18190;SDS011;47004;51.366;12.348;2024-01-15T06:29:48;12.03;;;4.80;;
18190;SDS011;47004;51.366;12.348;2024-01-15T06:31:50;13.73;;;5.43;;
18190;SDS011;47004;51.366;12.348;2024-01-15T06:33:52;10.20;;;4.33;;
18190;SDS011;47004;51.366;12.348;2024-01-15T06:35:53;10.80;;;5.03;;
18190;SDS011;47004;51.366;12.348;2024-01-15T06:37:55;13.80;;;5.00;;
18190;SDS011;47004;51.366;12.348;2024-01-15T06:39:56;11.90;;;4.53;;
18190;SDS011;47004;51.366;12.348;2024-01-15T06:41:58;12.00;;;5.23;;
18190;SDS011;47004;51.366;12.348;2024-01-15T06:44:01;12.87;;;4.60;;
18190;SDS011;47004;51.366;12.348;2024-01-15T06:46:03;8.87;;;4.37;;
18190;SDS011;47004;51.366;12.348;2024-01-15T06:48:06;13.43;;;4.83;;
18190;SDS011;47004;51.366;12.348;2024-01-15T06:50:08;12.93;;;4.57;;
18190;SDS011;47004;51.366;12.348;2024-01-15T06:52:10;10.37;;;4.90;;
18190;SDS011;47004;51.366;12.348;2024-01-15T06:54:13;15.47;;;5.17;;
18190;SDS011;47004;51.366;12.348;2024-01-15T06:56:15;14.17;;;5.47;;
18190;SDS011;47004;51.366;12.348;2024-01-15T06:58:17;13.77;;;5.63;;
18190;SDS011;47004;51.366;12.348;2024-01-15T07:00:21;11.77;;;4.57;;
18190;SDS011;47004;51.366;12.348;2024-01-15T07:02:23;12.57;;;5.30;;
18190;SDS011;47004;51.366;12.348;2024-01-15T07:04:28;11.20;;;5.10;;
18190;SDS011;47004;51.366;12.348;2024-01-15T07:06:30;14.77;;;4.60;;
18190;SDS011;47004;51.366;12.348;2024-01-15T07:08:32;8.77;;;3.87;;
18190;SDS011;47004;51.366;12.348;2024-01-15T07:10:34;8.30;;;3.93;;
18190;SDS011;47004;51.366;12.348;2024-01-15T07:12:34;11.03;;;4.50;;
18190;SDS011;47004;51.366;12.348;2024-01-15T07:14:36;8.80;;;4.50;;
18190;SDS011;47004;51.366;12.348;2024-01-15T07:16:40;9.80;;;4.50;;
18190;SDS011;47004;51.366;12.348;2024-01-15T07:18:42;11.10;;;4.43;;
18190;SDS011;47004;51.366;12.348;2024-01-15T07:20:44;10.77;;;4.40;;
18190;SDS011;47004;51.366;12.348;2024-01-15T07:22:48;11.60;;;5.07;;
18190;SDS011;47004;51.366;12.348;2024-01-15T07:24:50;10.90;;;4.73;;
18190;SDS011;47004;51.366;12.348;2024-01-15T07:26:52;14.07;;;4.37;;
18190;SDS011;47004;51.366;12.348;2024-01-15T07:28:55;13.27;;;5.07;;
18190;SDS011;47004;51.366;12.348;2024-01-15T07:30:57;11.70;;;4.77;;
18190;SDS011;47004;51.366;12.348;2024-01-15T07:33:00;12.63;;;5.50;;
18190;SDS011;47004;51.366;12.348;2024-01-15T07:35:06;10.07;;;4.20;;
18190;SDS011;47004;51.366;12.348;2024-01-15T07:37:11;12.73;;;4.93;;
18190;SDS011;47004;51.366;12.348;2024-01-15T07:39:13;11.10;;;4.80;;
18190;SDS011;47004;51.366;12.348;2024-01-15T07:41:15;7.47;;;4.30;;
18190;SDS011;47004;51.366;12.348;2024-01-15T07:43:18;9.10;;;4.20;;
18190;SDS011;47004;51.366;12.348;2024-01-15T07:45:20;12.23;;;4.53;;
18190;SDS011;47004;51.366;12.348;2024-01-15T07:47:22;10.73;;;4.47;;
18190;SDS011;47004;51.366;12.348;2024-01-15T07:49:26;14.87;;;4.63;;
18190;SDS011;47004;51.366;12.348;2024-01-15T07:51:28;13.73;;;4.67;;
18190;SDS011;47004;51.366;12.348;2024-01-15T07:53:31;11.53;;;4.63;;
18190;SDS011;47004;51.366;12.348;2024-01-15T07:55:33;10.87;;;4.23;;
18190;SDS011;47004;51.366;12.348;2024-01-15T07:57:37;9.90;;;4.00;;
18190;SDS011;47004;51.366;12.348;2024-01-15T07:59:39;12.33;;;4.70;;
18190;SDS011;47004;51.366;12.348;2024-01-15T08:01:42;13.23;;;4.20;;
18190;SDS011;47004;51.366;12.348;2024-01-15T08:03:44;10.03;;;4.77;;
18190;SDS011;47004;51.366;12.348;2024-01-15T08:05:50;13.33;;;4.77;;
18190;SDS011;47004;51.366;12.348;2024-01-15T08:07:53;12.40;;;4.77;;
18190;SDS011;47004;51.366;12.348;2024-01-15T08:09:55;11.63;;;4.83;;
18190;SDS011;47004;51.366;12.348;2024-01-15T08:11:56;16.57;;;4.50;;
18190;SDS011;47004;51.366;12.348;2024-01-15T08:13:58;12.33;;;4.43;;
18190;SDS011;47004;51.366;12.348;2024-01-15T08:16:00;14.90;;;4.97;;
18190;SDS011;47004;51.366;12.348;2024-01-15T08:18:02;10.73;;;4.37;;
18190;SDS011;47004;51.366;12.348;2024-01-15T08:20:05;11.87;;;4.57;;
18190;SDS011;47004;51.366;12.348;2024-01-15T08:22:08;7.63;;;4.07;;
18190;SDS011;47004;51.366;12.348;2024-01-15T08:24:11;12.33;;;4.00;;
18190;SDS011;47004;51.366;12.348;2024-01-15T08:26:13;12.77;;;4.43;;
18190;SDS011;47004;51.366;12.348;2024-01-15T08:28:15;9.73;;;4.17;;
18190;SDS011;47004;51.366;12.348;2024-01-15T08:30:17;12.33;;;4.90;;
18190;SDS011;47004;51.366;12.348;2024-01-15T08:32:18;13.17;;;4.60;;
18190;SDS011;47004;51.366;12.348;2024-01-15T08:34:20;12.57;;;4.80;;
18190;SDS011;47004;51.366;12.348;2024-01-15T08:36:22;9.73;;;4.27;;
18190;SDS011;47004;51.366;12.348;2024-01-15T08:38:27;10.33;;;4.60;;
18190;SDS011;47004;51.366;12.348;2024-01-15T08:40:29;10.30;;;4.60;;
18190;SDS011;47004;51.366;12.348;2024-01-15T08:42:31;14.17;;;4.63;;
18190;SDS011;47004;51.366;12.348;2024-01-15T08:44:33;13.60;;;4.90;;
18190;SDS011;47004;51.366;12.348;2024-01-15T08:46:35;11.67;;;5.57;;
18190;SDS011;47004;51.366;12.348;2024-01-15T08:48:37;10.40;;;4.50;;
18190;SDS011;47004;51.366;12.348;2024-01-15T08:50:39;10.10;;;4.30;;
18190;SDS011;47004;51.366;12.348;2024-01-15T08:52:41;15.80;;;5.23;;
18190;SDS011;47004;51.366;12.348;2024-01-15T08:54:45;11.70;;;4.60;;
18190;SDS011;47004;51.366;12.348;2024-01-15T08:56:47;9.87;;;4.07;;
18190;SDS011;47004;51.366;12.348;2024-01-15T08:58:49;10.97;;;4.13;;
18190;SDS011;47004;51.366;12.348;2024-01-15T09:00:50;11.20;;;4.40;;
18190;SDS011;47004;51.366;12.348;2024-01-15T09:02:53;13.20;;;4.70;;
18190;SDS011;47004;51.366;12.348;2024-01-15T09:04:56;13.27;;;4.63;;
18190;SDS011;47004;51.366;12.348;2024-01-15T09:06:57;12.17;;;4.63;;
18190;SDS011;47004;51.366;12.348;2024-01-15T09:08:59;16.97;;;5.17;;
18190;SDS011;47004;51.366;12.348;2024-01-15T09:11:01;7.80;;;4.23;;
18190;SDS011;47004;51.366;12.348;2024-01-15T09:13:06;11.23;;;4.43;;
18190;SDS011;47004;51.366;12.348;2024-01-15T09:15:08;10.00;;;4.30;;
18190;SDS011;47004;51.366;12.348;2024-01-15T09:17:10;8.33;;;3.70;;
18190;SDS011;47004;51.366;12.348;2024-01-15T09:19:12;11.00;;;4.27;;
18190;SDS011;47004;51.366;12.348;2024-01-15T09:21:14;9.40;;;4.00;;
18190;SDS011;47004;51.366;12.348;2024-01-15T09:23:16;8.07;;;3.73;;
18190;SDS011;47004;51.366;12.348;2024-01-15T09:25:18;11.13;;;5.20;;
18190;SDS011;47004;51.366;12.348;2024-01-15T09:27:22;13.07;;;4.87;;
18190;SDS011;47004;51.366;12.348;2024-01-15T09:29:26;9.13;;;4.20;;
18190;SDS011;47004;51.366;12.348;2024-01-15T09:31:28;11.97;;;4.67;;
18190;SDS011;47004;51.366;12.348;2024-01-15T09:33:30;11.73;;;4.17;;
18190;SDS011;47004;51.366;12.348;2024-01-15T09:35:32;9.40;;;3.63;;
18190;SDS011;47004;51.366;12.348;2024-01-15T09:37:34;10.33;;;4.13;;
18190;SDS011;47004;51.366;12.348;2024-01-15T09:39:37;9.67;;;3.90;;
18190;SDS011;47004;51.366;12.348;2024-01-15T09:41:39;8.03;;;4.07;;
18190;SDS011;47004;51.366;12.348;2024-01-15T09:43:43;9.13;;;4.17;;
18190;SDS011;47004;51.366;12.348;2024-01-15T09:45:46;9.40;;;4.20;;
18190;SDS011;47004;51.366;12.348;2024-01-15T09:47:48;8.97;;;4.33;;
18190;SDS011;47004;51.366;12.348;2024-01-15T09:49:49;12.53;;;4.40;;
18190;SDS011;47004;51.366;12.348;2024-01-15T09:51:51;12.03;;;3.87;;
18190;SDS011;47004;51.366;12.348;2024-01-15T09:53:53;10.80;;;4.03;;
18190;SDS011;47004;51.366;12.348;2024-01-15T09:55:56;9.83;;;4.33;;
18190;SDS011;47004;51.366;12.348;2024-01-15T09:57:59;12.97;;;4.70;;
18190;SDS011;47004;51.366;12.348;2024-01-15T10:00:04;10.17;;;4.13;;
18190;SDS011;47004;51.366;12.348;2024-01-15T10:02:07;13.10;;;4.67;;
18190;SDS011;47004;51.366;12.348;2024-01-15T10:04:10;10.90;;;4.30;;
18190;SDS011;47004;51.366;12.348;2024-01-15T10:06:13;11.13;;;4.00;;
18190;SDS011;47004;51.366;12.348;2024-01-15T10:08:16;10.73;;;4.13;;
18190;SDS011;47004;51.366;12.348;2024-01-15T10:10:18;11.40;;;4.70;;
18190;SDS011;47004;51.366;12.348;2024-01-15T10:12:22;10.67;;;4.10;;
18190;SDS011;47004;51.366;12.348;2024-01-15T10:14:24;11.77;;;4.83;;
18190;SDS011;47004;51.366;12.348;2024-01-15T10:16:27;14.57;;;4.40;;
18190;SDS011;47004;51.366;12.348;2024-01-15T10:18:29;8.87;;;4.37;;
18190;SDS011;47004;51.366;12.348;2024-01-15T10:20:32;9.27;;;4.17;;
18190;SDS011;47004;51.366;12.348;2024-01-15T10:22:34;8.33;;;4.10;;
18190;SDS011;47004;51.366;12.348;2024-01-15T10:24:37;11.70;;;4.17;;
18190;SDS011;47004;51.366;12.348;2024-01-15T10:26:41;11.97;;;4.80;;
18190;SDS011;47004;51.366;12.348;2024-01-15T10:28:44;10.63;;;4.50;;
18190;SDS011;47004;51.366;12.348;2024-01-15T10:30:45;9.43;;;4.40;;
18190;SDS011;47004;51.366;12.348;2024-01-15T10:32:51;9.17;;;4.27;;
18190;SDS011;47004;51.366;12.348;2024-01-15T10:34:59;11.57;;;4.50;;
18190;SDS011;47004;51.366;12.348;2024-01-15T10:37:01;9.93;;;4.80;;
18190;SDS011;47004;51.366;12.348;2024-01-15T10:39:03;13.97;;;4.90;;
18190;SDS011;47004;51.366;12.348;2024-01-15T10:41:07;12.13;;;5.07;;
18190;SDS011;47004;51.366;12.348;2024-01-15T10:43:09;13.80;;;4.67;;
18190;SDS011;47004;51.366;12.348;2024-01-15T10:45:11;11.33;;;4.60;;
18190;SDS011;47004;51.366;12.348;2024-01-15T10:47:12;10.80;;;4.47;;
18190;SDS011;47004;51.366;12.348;2024-01-15T10:49:16;12.10;;;5.03;;
18190;SDS011;47004;51.366;12.348;2024-01-15T10:51:19;14.10;;;4.67;;
18190;SDS011;47004;51.366;12.348;2024-01-15T10:53:21;13.70;;;4.87;;
18190;SDS011;47004;51.366;12.348;2024-01-15T10:55:25;11.53;;;4.57;;
18190;SDS011;47004;51.366;12.348;2024-01-15T10:57:28;11.67;;;4.97;;
18190;SDS011;47004;51.366;12.348;2024-01-15T10:59:30;11.13;;;4.80;;
18190;SDS011;47004;51.366;12.348;2024-01-15T11:01:32;16.23;;;4.87;;
18190;SDS011;47004;51.366;12.348;2024-01-15T11:03:35;9.07;;;4.53;;
18190;SDS011;47004;51.366;12.348;2024-01-15T11:05:40;12.67;;;4.23;;
18190;SDS011;47004;51.366;12.348;2024-01-15T11:07:42;11.47;;;4.60;;
18190;SDS011;47004;51.366;12.348;2024-01-15T11:09:47;12.40;;;5.00;;
18190;SDS011;47004;51.366;12.348;2024-01-15T11:11:50;12.90;;;4.63;;
18190;SDS011;47004;51.366;12.348;2024-01-15T11:13:53;11.73;;;4.97;;
18190;SDS011;47004;51.366;12.348;2024-01-15T11:15:57;14.27;;;5.73;;
18190;SDS011;47004;51.366;12.348;2024-01-15T11:18:00;11.47;;;5.40;;
18190;SDS011;47004;51.366;12.348;2024-01-15T11:20:05;13.53;;;5.00;;
18190;SDS011;47004;51.366;12.348;2024-01-15T11:22:10;13.47;;;4.90;;
18190;SDS011;47004;51.366;12.348;2024-01-15T11:24:36;12.87;;;5.23;;
18190;SDS011;47004;51.366;12.348;2024-01-15T11:26:38;11.10;;;4.90;;
18190;SDS011;47004;51.366;12.348;2024-01-15T11:28:48;10.27;;;4.33;;
18190;SDS011;47004;51.366;12.348;2024-01-15T11:30:50;10.60;;;4.27;;
18190;SDS011;47004;51.366;12.348;2024-01-15T11:32:54;10.90;;;4.70;;
18190;SDS011;47004;51.366;12.348;2024-01-15T11:34:57;13.47;;;5.07;;
18190;SDS011;47004;51.366;12.348;2024-01-15T11:37:02;14.10;;;5.97;;
18190;SDS011;47004;51.366;12.348;2024-01-15T11:41:40;12.37;;;4.80;;
18190;SDS011;47004;51.366;12.348;2024-01-15T11:43:42;13.30;;;4.97;;
18190;SDS011;47004;51.366;12.348;2024-01-15T11:45:44;11.77;;;5.27;;
18190;SDS011;47004;51.366;12.348;2024-01-15T11:48:06;11.23;;;5.30;;
18190;SDS011;47004;51.366;12.348;2024-01-15T11:50:11;10.73;;;4.87;;
18190;SDS011;47004;51.366;12.348;2024-01-15T11:52:14;16.20;;;5.53;;
18190;SDS011;47004;51.366;12.348;2024-01-15T11:54:18;12.43;;;4.90;;
18190;SDS011;47004;51.366;12.348;2024-01-15T11:56:23;10.97;;;4.90;;
18190;SDS011;47004;51.366;12.348;2024-01-15T11:58:26;13.97;;;5.27;;
18190;SDS011;47004;51.366;12.348;2024-01-15T12:00:28;11.00;;;4.87;;